Time,TemperatureF,DewpointF,PressureIn,WindDirection,WindDirectionDegrees,WindSpeedMPH,WindSpeedGustMPH,Humidity,HourlyPrecipIn,Conditions,Clouds,dailyrainin,SoftwareType,DateUTC
2013-08-05 00:10:00,51.6,50.2,29.83,WNW,292,3.7,-999.0,95,-99.99,,,0.00,Acu-Link.com,2013-08-05 04:10:00,
2013-08-05 00:25:00,51.3,50.2,29.83,NW,315,3.2,-999.0,96,-99.99,,,0.00,Acu-Link.com,2013-08-05 04:25:00,
2013-08-05 00:41:00,51.3,50.2,29.83,North,0,2.7,-999.0,96,-99.99,,,0.00,Acu-Link.com,2013-08-05 04:41:00,
2013-08-05 00:56:00,50.9,50.1,29.82,NW,315,3.2,-999.0,97,-99.99,,,0.00,Acu-Link.com,2013-08-05 04:56:00,
2013-08-05 01:27:00,50.2,49.7,29.83,NNW,337,3.2,-999.0,98,-99.99,,,0.00,Acu-Link.com,2013-08-05 05:27:00,
2013-08-05 01:42:00,49.8,49.5,29.82,NNE,22,2.7,-999.0,99,-99.99,,,0.00,Acu-Link.com,2013-08-05 05:42:00,
2013-08-05 01:58:00,49.5,49.2,29.82,NNE,22,1.7,-999.0,99,-99.99,,,0.00,Acu-Link.com,2013-08-05 05:58:00,
2013-08-05 02:13:00,49.3,49.0,29.82,NW,315,2.7,-999.0,99,-99.99,,,0.00,Acu-Link.com,2013-08-05 06:13:00,
2013-08-05 02:29:00,49.3,49.0,29.83,NNE,22,2.7,-999.0,99,-99.99,,,0.00,Acu-Link.com,2013-08-05 06:29:00,
2013-08-05 02:44:00,48.9,48.6,29.83,North,0,2.2,-999.0,99,-99.99,,,0.00,Acu-Link.com,2013-08-05 06:44:00,
2013-08-05 03:00:00,48.7,48.4,29.83,NNE,22,1.7,-999.0,99,-99.99,,,0.00,Acu-Link.com,2013-08-05 07:00:00,
2013-08-05 03:16:00,48.2,47.9,29.84,North,0,2.2,-999.0,99,-99.99,,,0.00,Acu-Link.com,2013-08-05 07:16:00,
2013-08-05 03:31:00,48.4,48.1,29.84,NNE,22,1.1,-999.0,99,-99.99,,,0.00,Acu-Link.com,2013-08-05 07:31:00,
2013-08-05 03:46:00,48.7,48.4,29.83,NNW,337,3.7,-999.0,99,-99.99,,,0.00,Acu-Link.com,2013-08-05 07:46:00,
2013-08-05 04:01:00,49.6,49.3,29.83,WNW,292,2.7,-999.0,99,-99.99,,,0.00,Acu-Link.com,2013-08-05 08:01:00,
2013-08-05 04:16:00,50.0,49.7,29.85,North,0,4.2,-999.0,99,-99.99,,,0.00,Acu-Link.com,2013-08-05 08:16:00,
2013-08-05 04:32:00,50.2,49.9,29.84,NW,315,3.7,-999.0,99,-99.99,,,0.00,Acu-Link.com,2013-08-05 08:32:00,
2013-08-05 05:02:00,50.2,49.7,29.85,WNW,292,5.3,-999.0,98,-99.99,,,0.00,Acu-Link.com,2013-08-05 09:02:00,
2013-08-05 05:17:00,49.8,49.3,29.85,NNW,337,3.2,-999.0,98,-99.99,,,0.00,Acu-Link.com,2013-08-05 09:17:00,
2013-08-05 05:32:00,49.8,49.3,29.85,SW,225,2.7,-999.0,98,-99.99,,,0.00,Acu-Link.com,2013-08-05 09:32:00,
2013-08-05 05:47:00,49.6,49.3,29.87,NW,315,2.7,-999.0,99,-99.99,,,0.00,Acu-Link.com,2013-08-05 09:47:00,
2013-08-05 06:18:00,49.1,48.8,29.87,West,270,5.8,-999.0,99,-99.99,,,0.00,Acu-Link.com,2013-08-05 10:18:00,
2013-08-05 06:33:00,48.6,48.3,29.88,WNW,292,3.7,-999.0,99,-99.99,,,0.00,Acu-Link.com,2013-08-05 10:33:00,
2013-08-05 06:49:00,48.6,48.3,29.90,WSW,247,2.2,-999.0,99,-99.99,,,0.00,Acu-Link.com,2013-08-05 10:49:00,
2013-08-05 07:04:00,48.6,48.3,29.90,NNE,22,5.3,-999.0,99,-99.99,,,0.00,Acu-Link.com,2013-08-05 11:04:00,
2013-08-05 07:19:00,49.6,49.1,29.89,NNW,337,3.2,-999.0,98,-99.99,,,0.00,Acu-Link.com,2013-08-05 11:19:00,
2013-08-05 07:34:00,51.8,49.6,29.89,NNW,337,3.7,-999.0,92,-99.99,,,0.00,Acu-Link.com,2013-08-05 11:34:00,
2013-08-05 07:49:00,53.1,49.6,29.88,NW,315,6.3,-999.0,88,-99.99,,,0.00,Acu-Link.com,2013-08-05 11:49:00,
2013-08-05 08:04:00,51.8,49.3,29.89,WNW,292,4.2,-999.0,91,-99.99,,,0.00,Acu-Link.com,2013-08-05 12:04:00,
2013-08-05 08:19:00,52.5,48.7,29.91,West,270,2.7,-999.0,87,-99.99,,,0.00,Acu-Link.com,2013-08-05 12:19:00,
2013-08-05 08:35:00,52.7,49.8,29.91,NW,315,7.8,-999.0,90,-99.99,,,0.00,Acu-Link.com,2013-08-05 12:35:00,
2013-08-05 08:50:00,54.1,49.4,29.90,WNW,292,5.3,-999.0,84,-99.99,,,0.00,Acu-Link.com,2013-08-05 12:50:00,
2013-08-05 09:05:00,54.5,48.8,29.90,WSW,247,7.3,-999.0,81,-99.99,,,0.00,Acu-Link.com,2013-08-05 13:05:00,
2013-08-05 09:20:00,55.8,48.7,29.89,West,270,7.3,-999.0,77,-99.99,,,0.00,Acu-Link.com,2013-08-05 13:20:00,
2013-08-05 09:36:00,56.1,47.9,29.89,WNW,292,9.4,-999.0,74,-99.99,,,0.00,Acu-Link.com,2013-08-05 13:36:00,
2013-08-05 09:51:00,57.4,46.9,29.90,NNW,337,5.3,-999.0,68,-99.99,,,0.00,Acu-Link.com,2013-08-05 13:51:00,
2013-08-05 10:06:00,58.1,47.6,29.89,SW,225,5.8,-999.0,68,-99.99,,,0.00,Acu-Link.com,2013-08-05 14:06:00,
2013-08-05 10:21:00,58.6,46.0,29.91,West,270,16.6,-999.0,63,-99.99,,,0.00,Acu-Link.com,2013-08-05 14:21:00,
2013-08-05 10:51:00,59.7,46.2,29.89,NNE,22,6.8,-999.0,61,-99.99,,,0.00,Acu-Link.com,2013-08-05 14:51:00,
2013-08-05 11:06:00,61.0,46.6,29.90,West,270,5.8,-999.0,59,-99.99,,,0.00,Acu-Link.com,2013-08-05 15:06:00,
2013-08-05 11:22:00,60.6,44.8,29.92,NW,315,6.3,-999.0,56,-99.99,,,0.00,Acu-Link.com,2013-08-05 15:22:00,
2013-08-05 11:52:00,62.1,45.3,29.92,WSW,247,8.3,-999.0,54,-99.99,,,0.00,Acu-Link.com,2013-08-05 15:52:00,
2013-08-05 12:38:00,63.9,44.4,29.90,WNW,292,9.9,-999.0,49,-99.99,,,0.00,Acu-Link.com,2013-08-05 16:38:00,
2013-08-05 12:53:00,64.8,46.2,29.89,SW,225,4.7,-999.0,51,-99.99,,,0.00,Acu-Link.com,2013-08-05 16:53:00,
2013-08-05 13:08:00,65.7,47.6,29.89,West,270,6.3,-999.0,52,-99.99,,,0.00,Acu-Link.com,2013-08-05 17:08:00,
2013-08-05 13:23:00,65.5,45.8,29.91,NNW,337,6.3,-999.0,49,-99.99,,,0.00,Acu-Link.com,2013-08-05 17:23:00,
2013-08-05 13:38:00,65.8,45.0,29.90,NW,315,12.5,-999.0,47,-99.99,,,0.00,Acu-Link.com,2013-08-05 17:38:00,
2013-08-05 13:54:00,65.7,46.5,29.89,NNW,337,6.8,-999.0,50,-99.99,,,0.00,Acu-Link.com,2013-08-05 17:54:00,
2013-08-05 14:09:00,66.9,46.6,29.90,West,270,8.3,-999.0,48,-99.99,,,0.00,Acu-Link.com,2013-08-05 18:09:00,
2013-08-05 14:24:00,67.5,46.6,29.90,NNE,22,7.8,-999.0,47,-99.99,,,0.00,Acu-Link.com,2013-08-05 18:24:00,
2013-08-05 14:39:00,67.6,46.6,29.89,NW,315,6.8,-999.0,47,-99.99,,,0.00,Acu-Link.com,2013-08-05 18:39:00,
2013-08-05 14:54:00,66.9,46.0,29.89,North,0,5.8,-999.0,47,-99.99,,,0.00,Acu-Link.com,2013-08-05 18:54:00,
2013-08-05 15:09:00,68.2,46.0,29.88,NE,45,9.4,-999.0,45,-99.99,,,0.00,Acu-Link.com,2013-08-05 19:09:00,
2013-08-05 15:25:00,67.8,45.1,29.88,NNW,337,6.3,-999.0,44,-99.99,,,0.00,Acu-Link.com,2013-08-05 19:25:00,
2013-08-05 15:40:00,68.5,45.1,29.90,WSW,247,4.7,-999.0,43,-99.99,,,0.00,Acu-Link.com,2013-08-05 19:40:00,
2013-08-05 15:55:00,68.9,47.3,29.89,West,270,4.2,-999.0,46,-99.99,,,0.00,Acu-Link.com,2013-08-05 19:55:00,
2013-08-05 16:10:00,69.3,45.8,29.89,WNW,292,2.7,-999.0,43,-99.99,,,0.00,Acu-Link.com,2013-08-05 20:10:00,
2013-08-05 16:26:00,72.3,45.9,29.89,NW,315,9.9,-999.0,39,-99.99,,,0.00,Acu-Link.com,2013-08-05 20:26:00,
2013-08-05 16:57:00,70.7,44.5,29.88,NNE,22,9.4,-999.0,39,-99.99,,,0.00,Acu-Link.com,2013-08-05 20:57:00,
2013-08-05 17:12:00,70.3,44.8,29.88,WNW,292,9.4,-999.0,40,-99.99,,,0.00,Acu-Link.com,2013-08-05 21:12:00,
2013-08-05 17:27:00,70.5,46.3,29.89,NNE,22,4.2,-999.0,42,-99.99,,,0.00,Acu-Link.com,2013-08-05 21:27:00,
2013-08-05 17:42:00,72.1,46.4,29.90,West,270,5.8,-999.0,40,-99.99,,,0.00,Acu-Link.com,2013-08-05 21:42:00,
2013-08-05 17:58:00,72.7,46.3,29.89,ESE,112,6.3,-999.0,39,-99.99,,,0.00,Acu-Link.com,2013-08-05 21:58:00,
2013-08-05 18:13:00,71.4,47.1,29.89,NE,45,3.7,-999.0,42,-99.99,,,0.00,Acu-Link.com,2013-08-05 22:13:00,
2013-08-05 18:28:00,71.4,45.8,29.90,West,270,7.8,-999.0,40,-99.99,,,0.00,Acu-Link.com,2013-08-05 22:28:00,
2013-08-05 18:44:00,72.0,46.3,29.89,NNW,337,3.7,-999.0,40,-99.99,,,0.00,Acu-Link.com,2013-08-05 22:44:00,
2013-08-05 18:59:00,69.6,46.1,29.90,NNE,22,6.3,-999.0,43,-99.99,,,0.00,Acu-Link.com,2013-08-05 22:59:00,
2013-08-05 19:14:00,68.0,47.6,29.90,East,90,2.2,-999.0,48,-99.99,,,0.00,Acu-Link.com,2013-08-05 23:14:00,
2013-08-05 19:29:00,64.0,48.0,29.92,East,90,2.2,-999.0,56,-99.99,,,0.00,Acu-Link.com,2013-08-05 23:29:00,
2013-08-05 19:45:00,60.4,49.4,29.90,NNE,22,1.7,-999.0,67,-99.99,,,0.00,Acu-Link.com,2013-08-05 23:45:00,
2013-08-05 20:15:00,55.4,49.7,29.92,NE,45,0.0,-999.0,81,-99.99,,,0.00,Acu-Link.com,2013-08-06 00:15:00,
2013-08-05 20:30:00,53.1,49.0,29.94,NNE,22,1.7,-999.0,86,-99.99,,,0.00,Acu-Link.com,2013-08-06 00:30:00,
2013-08-05 20:46:00,52.2,48.4,29.93,NE,45,0.0,-999.0,87,-99.99,,,0.00,Acu-Link.com,2013-08-06 00:46:00,
2013-08-05 21:32:00,48.4,46.5,29.95,ENE,67,0.0,-999.0,93,-99.99,,,0.00,Acu-Link.com,2013-08-06 01:32:00,
2013-08-05 21:47:00,48.4,46.5,29.95,NE,45,0.0,-999.0,93,-99.99,,,0.00,Acu-Link.com,2013-08-06 01:47:00,
2013-08-05 22:02:00,47.5,46.1,29.94,NNE,22,0.0,-999.0,95,-99.99,,,0.00,Acu-Link.com,2013-08-06 02:02:00,
2013-08-05 22:18:00,47.5,46.1,29.95,NNE,22,2.2,-999.0,95,-99.99,,,0.00,Acu-Link.com,2013-08-06 02:18:00,
2013-08-05 22:33:00,46.9,45.8,29.93,East,90,0.0,-999.0,96,-99.99,,,0.00,Acu-Link.com,2013-08-06 02:33:00,
2013-08-05 22:48:00,46.6,45.8,29.95,ENE,67,0.0,-999.0,97,-99.99,,,0.00,Acu-Link.com,2013-08-06 02:48:00,
2013-08-05 23:03:00,46.2,45.4,29.95,East,90,0.0,-999.0,97,-99.99,,,0.00,Acu-Link.com,2013-08-06 03:03:00,
2013-08-05 23:18:00,46.4,45.6,29.95,NE,45,0.0,-999.0,97,-99.99,,,0.00,Acu-Link.com,2013-08-06 03:18:00,
2013-08-05 23:34:00,45.9,45.1,29.94,NE,45,0.0,-999.0,97,-99.99,,,0.00,Acu-Link.com,2013-08-06 03:34:00,